sensor_id;sensor_type;location;lat;lon;timestamp;pressure;altitude;pressure_sealevel;temperature;humidity
66880;BME280;53789;51.392;10.234;2023-05-19T00:00:17;99204.78;;;7.44;68.21
66880;BME280;53789;51.392;10.234;2023-05-19T00:00:38;99203.97;;;7.44;68.63
66880;BME280;53789;51.392;10.234;2023-05-19T00:00:58;99202.88;;;7.45;69.06
66880;BME280;53789;51.392;10.234;2023-05-19T00:01:19;99210.50;;;7.43;69.00
66880;BME280;53789;51.392;10.234;2023-05-19T00:01:39;99204.22;;;7.42;68.31
66880;BME280;53789;51.392;10.234;2023-05-19T00:02:00;99205.28;;;7.41;69.07
66880;BME280;53789;51.392;10.234;2023-05-19T00:02:21;99206.38;;;7.40;68.71
66880;BME280;53789;51.392;10.234;2023-05-19T00:02:41;99203.63;;;7.40;68.43
66880;BME280;53789;51.392;10.234;2023-05-19T00:03:02;99203.91;;;7.39;68.61
66880;BME280;53789;51.392;10.234;2023-05-19T00:03:23;99203.09;;;7.38;68.89
66880;BME280;53789;51.392;10.234;2023-05-19T00:03:57;99206.34;;;7.35;68.53
66880;BME280;53789;51.392;10.234;2023-05-19T00:04:18;99201.94;;;7.34;68.55
66880;BME280;53789;51.392;10.234;2023-05-19T00:04:38;99205.50;;;7.35;69.52
66880;BME280;53789;51.392;10.234;2023-05-19T00:05:02;99195.94;;;7.32;68.93
66880;BME280;53789;51.392;10.234;2023-05-19T00:05:22;99198.66;;;7.32;69.31
66880;BME280;53789;51.392;10.234;2023-05-19T00:05:44;99200.56;;;7.32;68.67
66880;BME280;53789;51.392;10.234;2023-05-19T00:06:06;99194.25;;;7.31;69.00
66880;BME280;53789;51.392;10.234;2023-05-19T00:06:29;99201.66;;;7.31;69.33
66880;BME280;53789;51.392;10.234;2023-05-19T00:06:50;99201.66;;;7.31;68.72
66880;BME280;53789;51.392;10.234;2023-05-19T00:07:10;99200.81;;;7.30;68.48
66880;BME280;53789;51.392;10.234;2023-05-19T00:07:31;99193.72;;;7.29;69.40
66880;BME280;53789;51.392;10.234;2023-05-19T00:07:57;99202.75;;;7.30;69.29
66880;BME280;53789;51.392;10.234;2023-05-19T00:08:19;99200.25;;;7.28;68.60
66880;BME280;53789;51.392;10.234;2023-05-19T00:08:41;99199.44;;;7.27;69.40
66880;BME280;53789;51.392;10.234;2023-05-19T00:09:04;99200.53;;;7.26;69.15
66880;BME280;53789;51.392;10.234;2023-05-19T00:09:25;99201.34;;;7.27;69.25
66880;BME280;53789;51.392;10.234;2023-05-19T00:09:46;99197.78;;;7.26;68.47
66880;BME280;53789;51.392;10.234;2023-05-19T00:10:06;99204.06;;;7.27;68.97
66880;BME280;53789;51.392;10.234;2023-05-19T00:10:27;99198.88;;;7.25;69.34
66880;BME280;53789;51.392;10.234;2023-05-19T00:10:48;99201.88;;;7.24;69.33
66880;BME280;53789;51.392;10.234;2023-05-19T00:11:08;99198.31;;;7.23;69.84
66880;BME280;53789;51.392;10.234;2023-05-19T00:11:29;99192.25;;;7.21;69.30
66880;BME280;53789;51.392;10.234;2023-05-19T00:11:50;99199.91;;;7.19;69.34
66880;BME280;53789;51.392;10.234;2023-05-19T00:12:10;99202.66;;;7.19;68.86
66880;BME280;53789;51.392;10.234;2023-05-19T00:12:31;99197.44;;;7.18;69.03
66880;BME280;53789;51.392;10.234;2023-05-19T00:12:52;99199.38;;;7.17;69.35
66880;BME280;53789;51.392;10.234;2023-05-19T00:13:12;99195.78;;;7.17;69.15
66880;BME280;53789;51.392;10.234;2023-05-19T00:13:33;99205.09;;;7.16;69.28
66880;BME280;53789;51.392;10.234;2023-05-19T00:13:55;99196.88;;;7.16;69.05
66880;BME280;53789;51.392;10.234;2023-05-19T00:14:15;99194.97;;;7.16;69.17
66880;BME280;53789;51.392;10.234;2023-05-19T00:14:36;99194.38;;;7.14;69.18
66880;BME280;53789;51.392;10.234;2023-05-19T00:14:56;99202.59;;;7.14;70.40
66880;BME280;53789;51.392;10.234;2023-05-19T00:15:17;99191.34;;;7.11;69.59
66880;BME280;53789;51.392;10.234;2023-05-19T00:15:38;99198.50;;;7.12;70.08
66880;BME280;53789;51.392;10.234;2023-05-19T00:15:58;99207.78;;;7.11;69.47
66880;BME280;53789;51.392;10.234;2023-05-19T00:16:19;99208.84;;;7.09;69.79
66880;BME280;53789;51.392;10.234;2023-05-19T00:16:40;99205.28;;;7.09;69.60
66880;BME280;53789;51.392;10.234;2023-05-19T00:17:01;99199.53;;;7.05;70.23
66880;BME280;53789;51.392;10.234;2023-05-19T00:17:21;99202.28;;;7.05;69.62
66880;BME280;53789;51.392;10.234;2023-05-19T00:17:41;99205.81;;;7.06;69.87
66880;BME280;53789;51.392;10.234;2023-05-19T00:18:02;99204.41;;;7.03;69.69
66880;BME280;53789;51.392;10.234;2023-05-19T00:18:22;99201.94;;;7.02;70.31
66880;BME280;53789;51.392;10.234;2023-05-19T00:18:42;99203.88;;;7.01;69.69
66880;BME280;53789;51.392;10.234;2023-05-19T00:19:04;99204.13;;;7.00;69.70
66880;BME280;53789;51.392;10.234;2023-05-19T00:19:25;99201.66;;;6.98;70.49
66880;BME280;53789;51.392;10.234;2023-05-19T00:19:45;99204.38;;;6.98;69.90
66880;BME280;53789;51.392;10.234;2023-05-19T00:20:06;99204.66;;;6.97;69.95
66880;BME280;53789;51.392;10.234;2023-05-19T00:20:26;99194.78;;;6.96;69.84
66880;BME280;53789;51.392;10.234;2023-05-19T00:20:47;99199.44;;;6.95;70.34
66880;BME280;53789;51.392;10.234;2023-05-19T00:21:08;99195.84;;;6.95;70.06
66880;BME280;53789;51.392;10.234;2023-05-19T00:21:29;99201.59;;;6.93;70.04
66880;BME280;53789;51.392;10.234;2023-05-19T00:21:49;99203.50;;;6.93;69.91
66880;BME280;53789;51.392;10.234;2023-05-19T00:22:10;99199.97;;;6.92;70.35
66880;BME280;53789;51.392;10.234;2023-05-19T00:22:30;99199.13;;;6.91;70.14
66880;BME280;53789;51.392;10.234;2023-05-19T00:22:50;99193.91;;;6.90;70.33
66880;BME280;53789;51.392;10.234;2023-05-19T00:23:11;99204.03;;;6.89;70.45
66880;BME280;53789;51.392;10.234;2023-05-19T00:23:31;99202.38;;;6.88;70.65
66880;BME280;53789;51.392;10.234;2023-05-19T00:23:53;99200.72;;;6.87;70.50
66880;BME280;53789;51.392;10.234;2023-05-19T00:24:13;99205.38;;;6.87;70.38
66880;BME280;53789;51.392;10.234;2023-05-19T00:24:34;99201.22;;;6.84;70.52
66880;BME280;53789;51.392;10.234;2023-05-19T00:24:54;99204.81;;;6.85;70.12
66880;BME280;53789;51.392;10.234;2023-05-19T00:25:14;99204.22;;;6.83;70.38
66880;BME280;53789;51.392;10.234;2023-05-19T00:25:35;99207.81;;;6.83;70.65
66880;BME280;53789;51.392;10.234;2023-05-19T00:25:55;99202.59;;;6.82;70.87
66880;BME280;53789;51.392;10.234;2023-05-19T00:26:16;99201.75;;;6.81;70.44
66880;BME280;53789;51.392;10.234;2023-05-19T00:26:36;99203.66;;;6.81;70.31
66880;BME280;53789;51.392;10.234;2023-05-19T00:26:57;99205.59;;;6.80;70.96
66880;BME280;53789;51.392;10.234;2023-05-19T00:27:17;99202.00;;;6.80;71.03
66880;BME280;53789;51.392;10.234;2023-05-19T00:27:37;99202.84;;;6.80;70.78
66880;BME280;53789;51.392;10.234;2023-05-19T00:27:57;99196.78;;;6.78;70.77
66880;BME280;53789;51.392;10.234;2023-05-19T00:28:18;99202.28;;;6.78;70.73
66880;BME280;53789;51.392;10.234;2023-05-19T00:28:38;99203.13;;;6.79;70.69
66880;BME280;53789;51.392;10.234;2023-05-19T00:28:58;99205.84;;;6.79;70.22
66880;BME280;53789;51.392;10.234;2023-05-19T00:29:19;99205.00;;;6.78;70.36
66880;BME280;53789;51.392;10.234;2023-05-19T00:29:39;99210.47;;;6.78;71.08
66880;BME280;53789;51.392;10.234;2023-05-19T00:29:59;99203.13;;;6.79;71.10
66880;BME280;53789;51.392;10.234;2023-05-19T00:30:19;99198.72;;;6.78;71.15
66880;BME280;53789;51.392;10.234;2023-05-19T00:30:40;99203.34;;;6.77;70.79
66880;BME280;53789;51.392;10.234;2023-05-19T00:31:00;99203.34;;;6.77;70.42
66880;BME280;53789;51.392;10.234;2023-05-19T00:31:21;99198.13;;;6.76;71.01
66880;BME280;53789;51.392;10.234;2023-05-19T00:31:41;99204.44;;;6.76;71.57
66880;BME280;53789;51.392;10.234;2023-05-19T00:32:02;99208.00;;;6.77;70.63
66880;BME280;53789;51.392;10.234;2023-05-19T00:32:22;99197.31;;;6.75;70.28
66880;BME280;53789;51.392;10.234;2023-05-19T00:32:42;99205.53;;;6.75;70.28
66880;BME280;53789;51.392;10.234;2023-05-19T00:33:03;99203.88;;;6.74;70.33
66880;BME280;53789;51.392;10.234;2023-05-19T00:33:23;99202.78;;;6.75;70.33
66880;BME280;53789;51.392;10.234;2023-05-19T00:33:43;99206.59;;;6.74;70.80
66880;BME280;53789;51.392;10.234;2023-05-19T00:34:03;99209.59;;;6.72;71.00
66880;BME280;53789;51.392;10.234;2023-05-19T00:34:24;99206.84;;;6.72;69.93
66880;BME280;53789;51.392;10.234;2023-05-19T00:34:44;99199.50;;;6.73;70.53
66880;BME280;53789;51.392;10.234;2023-05-19T00:35:05;99205.22;;;6.71;70.94
66880;BME280;53789;51.392;10.234;2023-05-19T00:35:25;99204.38;;;6.71;69.97
66880;BME280;53789;51.392;10.234;2023-05-19T00:35:45;99199.75;;;6.71;70.76
66880;BME280;53789;51.392;10.234;2023-05-19T00:36:06;99207.97;;;6.71;70.45
66880;BME280;53789;51.392;10.234;2023-05-19T00:36:26;99207.13;;;6.71;70.73
66880;BME280;53789;51.392;10.234;2023-05-19T00:36:46;99208.22;;;6.70;70.02
66880;BME280;53789;51.392;10.234;2023-05-19T00:37:07;99201.09;;;6.69;70.72
66880;BME280;53789;51.392;10.234;2023-05-19T00:37:27;99195.63;;;6.69;70.31
66880;BME280;53789;51.392;10.234;2023-05-19T00:37:47;99203.81;;;6.69;70.37
66880;BME280;53789;51.392;10.234;2023-05-19T00:38:08;99203.00;;;6.68;70.45
66880;BME280;53789;51.392;10.234;2023-05-19T00:38:33;99202.41;;;6.66;69.77
66880;BME280;53789;51.392;10.234;2023-05-19T00:38:54;99205.16;;;6.66;70.74
66880;BME280;53789;51.392;10.234;2023-05-19T00:39:14;99207.88;;;6.66;70.21
66880;BME280;53789;51.392;10.234;2023-05-19T00:39:34;99204.34;;;6.66;70.31
66880;BME280;53789;51.392;10.234;2023-05-19T00:39:55;99207.06;;;6.66;70.87
66880;BME280;53789;51.392;10.234;2023-05-19T00:40:15;99201.03;;;6.64;70.51
66880;BME280;53789;51.392;10.234;2023-05-19T00:40:35;99198.28;;;6.64;70.61
66880;BME280;53789;51.392;10.234;2023-05-19T00:40:56;99211.13;;;6.63;70.68
66880;BME280;53789;51.392;10.234;2023-05-19T00:41:16;99205.94;;;6.62;70.69
66880;BME280;53789;51.392;10.234;2023-05-19T00:41:37;99207.84;;;6.61;70.85
66880;BME280;53789;51.392;10.234;2023-05-19T00:41:57;99207.00;;;6.61;70.25
66880;BME280;53789;51.392;10.234;2023-05-19T00:42:19;99205.38;;;6.60;70.59
66880;BME280;53789;51.392;10.234;2023-05-19T00:42:40;99205.38;;;6.60;70.53
66880;BME280;53789;51.392;10.234;2023-05-19T00:43:01;99213.56;;;6.60;69.96
66880;BME280;53789;51.392;10.234;2023-05-19T00:43:21;99208.09;;;6.60;69.76
66880;BME280;53789;51.392;10.234;2023-05-19T00:43:41;99211.91;;;6.59;70.00
66880;BME280;53789;51.392;10.234;2023-05-19T00:44:02;99203.97;;;6.57;70.12
66880;BME280;53789;51.392;10.234;2023-05-19T00:44:22;99202.31;;;6.56;70.61
66880;BME280;53789;51.392;10.234;2023-05-19T00:44:42;99205.03;;;6.56;70.28
66880;BME280;53789;51.392;10.234;2023-05-19T00:45:03;99205.31;;;6.54;70.53
66880;BME280;53789;51.392;10.234;2023-05-19T00:45:24;99207.22;;;6.54;70.36
66880;BME280;53789;51.392;10.234;2023-05-19T00:45:44;99203.63;;;6.53;70.49
66880;BME280;53789;51.392;10.234;2023-05-19T00:46:04;99201.16;;;6.52;70.12
66880;BME280;53789;51.392;10.234;2023-05-19T00:46:25;99206.63;;;6.52;70.72
66880;BME280;53789;51.392;10.234;2023-05-19T00:46:45;99207.72;;;6.51;70.67
66880;BME280;53789;51.392;10.234;2023-05-19T00:47:06;99205.81;;;6.51;70.54
66880;BME280;53789;51.392;10.234;2023-05-19T00:47:26;99202.53;;;6.49;70.51
66880;BME280;53789;51.392;10.234;2023-05-19T00:47:46;99196.22;;;6.49;70.39
66880;BME280;53789;51.392;10.234;2023-05-19T00:48:07;99207.16;;;6.49;69.92
66880;BME280;53789;51.392;10.234;2023-05-19T00:48:27;99201.94;;;6.47;70.22
66880;BME280;53789;51.392;10.234;2023-05-19T00:48:47;99212.06;;;6.47;70.82
66880;BME280;53789;51.392;10.234;2023-05-19T00:49:07;99209.56;;;6.45;70.65
66880;BME280;53789;51.392;10.234;2023-05-19T00:49:28;99203.56;;;6.43;70.53
66880;BME280;53789;51.392;10.234;2023-05-19T00:49:48;99198.31;;;6.42;70.57
66880;BME280;53789;51.392;10.234;2023-05-19T00:50:09;99203.78;;;6.42;70.89
66880;BME280;53789;51.392;10.234;2023-05-19T00:50:29;99195.59;;;6.42;70.99
66880;BME280;53789;51.392;10.234;2023-05-19T00:50:52;99199.41;;;6.41;70.84
66880;BME280;53789;51.392;10.234;2023-05-19T00:51:14;99203.47;;;6.38;70.89
66880;BME280;53789;51.392;10.234;2023-05-19T00:51:36;99199.94;;;6.37;71.29
66880;BME280;53789;51.392;10.234;2023-05-19T00:51:58;99201.81;;;6.37;71.20
66880;BME280;53789;51.392;10.234;2023-05-19T00:52:20;99196.59;;;6.35;71.46
66880;BME280;53789;51.392;10.234;2023-05-19T00:52:40;99198.28;;;6.36;70.72
66880;BME280;53789;51.392;10.234;2023-05-19T00:53:01;99206.47;;;6.36;70.80
66880;BME280;53789;51.392;10.234;2023-05-19T00:53:23;99195.53;;;6.36;70.67
66880;BME280;53789;51.392;10.234;2023-05-19T00:53:45;99199.34;;;6.35;70.43
66880;BME280;53789;51.392;10.234;2023-05-19T00:54:07;99200.19;;;6.36;70.49
66880;BME280;53789;51.392;10.234;2023-05-19T00:54:28;99198.28;;;6.36;70.54
66880;BME280;53789;51.392;10.234;2023-05-19T00:54:48;99198.53;;;6.35;70.70
66880;BME280;53789;51.392;10.234;2023-05-19T00:55:11;99201.25;;;6.35;70.49
66880;BME280;53789;51.392;10.234;2023-05-19T00:55:32;99200.69;;;6.33;70.82
66880;BME280;53789;51.392;10.234;2023-05-19T00:55:53;99201.78;;;6.32;70.92
66880;BME280;53789;51.392;10.234;2023-05-19T00:56:14;99200.69;;;6.33;70.67
66880;BME280;53789;51.392;10.234;2023-05-19T00:56:35;99199.03;;;6.32;70.83
66880;BME280;53789;51.392;10.234;2023-05-19T00:56:58;99202.59;;;6.32;70.25
66880;BME280;53789;51.392;10.234;2023-05-19T00:57:19;99202.84;;;6.31;70.39
66880;BME280;53789;51.392;10.234;2023-05-19T00:57:41;99207.25;;;6.32;70.59
66880;BME280;53789;51.392;10.234;2023-05-19T00:58:04;99199.03;;;6.32;70.63
66880;BME280;53789;51.392;10.234;2023-05-19T00:58:26;99199.84;;;6.32;70.22
66880;BME280;53789;51.392;10.234;2023-05-19T00:58:46;99200.69;;;6.33;70.60
66880;BME280;53789;51.392;10.234;2023-05-19T00:59:09;99202.59;;;6.32;70.28
66880;BME280;53789;51.392;10.234;2023-05-19T00:59:30;99194.66;;;6.31;69.73
66880;BME280;53789;51.392;10.234;2023-05-19T00:59:50;99200.13;;;6.31;70.34
66880;BME280;53789;51.392;10.234;2023-05-19T01:00:11;99203.09;;;6.29;70.52
66880;BME280;53789;51.392;10.234;2023-05-19T01:00:32;99197.63;;;6.29;69.99
66880;BME280;53789;51.392;10.234;2023-05-19T01:00:53;99200.38;;;6.29;70.16
66880;BME280;53789;51.392;10.234;2023-05-19T01:01:14;99197.88;;;6.28;70.20
66880;BME280;53789;51.392;10.234;2023-05-19T01:01:34;99189.94;;;6.26;70.08
66880;BME280;53789;51.392;10.234;2023-05-19T01:01:55;99196.47;;;6.25;70.11
66880;BME280;53789;51.392;10.234;2023-05-19T01:02:15;99195.66;;;6.25;70.19
66880;BME280;53789;51.392;10.234;2023-05-19T01:02:36;99192.13;;;6.24;70.53
66880;BME280;53789;51.392;10.234;2023-05-19T01:02:57;99195.13;;;6.23;70.39
66880;BME280;53789;51.392;10.234;2023-05-19T01:03:17;99201.66;;;6.21;70.10
66880;BME280;53789;51.392;10.234;2023-05-19T01:03:38;99198.09;;;6.21;70.64
66880;BME280;53789;51.392;10.234;2023-05-19T01:03:58;99191.78;;;6.20;70.15
66880;BME280;53789;51.392;10.234;2023-05-19T01:04:20;99198.34;;;6.19;70.20
66880;BME280;53789;51.392;10.234;2023-05-19T01:04:42;99187.44;;;6.19;70.71
66880;BME280;53789;51.392;10.234;2023-05-19T01:05:04;99195.03;;;6.17;70.79
66880;BME280;53789;51.392;10.234;2023-05-19T01:05:25;99193.38;;;6.16;69.79
66880;BME280;53789;51.392;10.234;2023-05-19T01:05:45;99195.28;;;6.16;70.12
66880;BME280;53789;51.392;10.234;2023-05-19T01:06:06;99195.53;;;6.14;69.84
66880;BME280;53789;51.392;10.234;2023-05-19T01:06:26;99198.03;;;6.16;70.14
66880;BME280;53789;51.392;10.234;2023-05-19T01:06:48;99195.53;;;6.14;70.65
66880;BME280;53789;51.392;10.234;2023-05-19T01:07:08;99195.53;;;6.14;70.77
66880;BME280;53789;51.392;10.234;2023-05-19T01:07:29;99189.25;;;6.14;70.01
66880;BME280;53789;51.392;10.234;2023-05-19T01:07:49;99198.53;;;6.13;70.08
66880;BME280;53789;51.392;10.234;2023-05-19T01:08:10;99189.53;;;6.12;70.05
66880;BME280;53789;51.392;10.234;2023-05-19T01:08:35;99189.78;;;6.11;69.76
66880;BME280;53789;51.392;10.234;2023-05-19T01:08:56;99191.66;;;6.10;70.37
66880;BME280;53789;51.392;10.234;2023-05-19T01:09:17;99191.66;;;6.10;70.45
66880;BME280;53789;51.392;10.234;2023-05-19T01:09:38;99195.50;;;6.09;70.40
66880;BME280;53789;51.392;10.234;2023-05-19T01:09:58;99189.44;;;6.07;70.40
66880;BME280;53789;51.392;10.234;2023-05-19T01:10:19;99191.59;;;6.05;70.36
66880;BME280;53789;51.392;10.234;2023-05-19T01:10:39;99191.59;;;6.05;70.68
66880;BME280;53789;51.392;10.234;2023-05-19T01:11:00;99194.59;;;6.03;70.39
66880;BME280;53789;51.392;10.234;2023-05-19T01:11:20;99197.06;;;6.05;70.57
66880;BME280;53789;51.392;10.234;2023-05-19T01:11:41;99197.88;;;6.06;69.91
66880;BME280;53789;51.392;10.234;2023-05-19T01:12:01;99187.78;;;6.06;70.39
66880;BME280;53789;51.392;10.234;2023-05-19T01:12:22;99188.63;;;6.07;70.23
66880;BME280;53789;51.392;10.234;2023-05-19T01:12:43;99185.03;;;6.06;69.90
66880;BME280;53789;51.392;10.234;2023-05-19T01:13:04;99187.78;;;6.06;70.40
66880;BME280;53789;51.392;10.234;2023-05-19T01:13:26;99188.63;;;6.07;69.99
66880;BME280;53789;51.392;10.234;2023-05-19T01:13:47;99190.50;;;6.06;70.15
66880;BME280;53789;51.392;10.234;2023-05-19T01:14:08;99193.25;;;6.06;70.92
66880;BME280;53789;51.392;10.234;2023-05-19T01:14:29;99188.63;;;6.07;70.69
66880;BME280;53789;51.392;10.234;2023-05-19T01:14:49;99194.09;;;6.07;69.67
66880;BME280;53789;51.392;10.234;2023-05-19T01:15:10;99194.34;;;6.05;70.34
66880;BME280;53789;51.392;10.234;2023-05-19T01:16:26;99191.03;;;6.03;70.47
66880;BME280;53789;51.392;10.234;2023-05-19T01:16:57;99193.44;;;5.99;69.73
66880;BME280;53789;51.392;10.234;2023-05-19T01:17:28;99193.44;;;5.99;70.32
66880;BME280;53789;51.392;10.234;2023-05-19T01:18:11;99189.06;;;5.98;70.21
66880;BME280;53789;51.392;10.234;2023-05-19T01:20:29;99193.34;;;5.94;70.39
66880;BME280;53789;51.392;10.234;2023-05-19T01:21:12;99194.22;;;5.95;70.38
66880;BME280;53789;51.392;10.234;2023-05-19T01:22:11;99191.47;;;5.95;70.34
66880;BME280;53789;51.392;10.234;2023-05-19T01:23:51;99188.16;;;5.93;70.41
66880;BME280;53789;51.392;10.234;2023-05-19T01:30:59;99192.81;;;5.92;69.80
66880;BME280;53789;51.392;10.234;2023-05-19T01:31:22;99188.16;;;5.93;70.29
66880;BME280;53789;51.392;10.234;2023-05-19T01:31:45;99181.88;;;5.92;70.50
66880;BME280;53789;51.392;10.234;2023-05-19T01:32:09;99186.53;;;5.92;70.18
66880;BME280;53789;51.392;10.234;2023-05-19T01:32:32;99187.59;;;5.91;69.77
66880;BME280;53789;51.392;10.234;2023-05-19T01:32:57;99185.69;;;5.91;69.65
66880;BME280;53789;51.392;10.234;2023-05-19T01:33:20;99183.19;;;5.90;70.21
66880;BME280;53789;51.392;10.234;2023-05-19T01:33:42;99186.78;;;5.90;70.06
66880;BME280;53789;51.392;10.234;2023-05-19T01:34:05;99185.94;;;5.90;70.22
66880;BME280;53789;51.392;10.234;2023-05-19T01:34:26;99184.03;;;5.90;70.37
66880;BME280;53789;51.392;10.234;2023-05-19T01:34:48;99182.94;;;5.91;70.27
66880;BME280;53789;51.392;10.234;2023-05-19T01:35:11;99183.19;;;5.90;69.87
66880;BME280;53789;51.392;10.234;2023-05-19T01:35:36;99185.69;;;5.91;70.40
66880;BME280;53789;51.392;10.234;2023-05-19T01:35:58;99186.53;;;5.92;70.33
66880;BME280;53789;51.392;10.234;2023-05-19T01:36:21;99185.69;;;5.91;69.89
66880;BME280;53789;51.392;10.234;2023-05-19T01:36:44;99181.06;;;5.92;70.20
66880;BME280;53789;51.392;10.234;2023-05-19T01:37:06;99184.59;;;5.92;70.05
66880;BME280;53789;51.392;10.234;2023-05-19T01:37:28;99186.53;;;5.92;70.44
66880;BME280;53789;51.392;10.234;2023-05-19T01:37:51;99179.97;;;5.93;69.87
66880;BME280;53789;51.392;10.234;2023-05-19T01:38:15;99186.53;;;5.92;70.21
66880;BME280;53789;51.392;10.234;2023-05-19T01:38:37;99188.41;;;5.91;70.21
66880;BME280;53789;51.392;10.234;2023-05-19T01:38:59;99180.22;;;5.91;70.09
66880;BME280;53789;51.392;10.234;2023-05-19T01:39:22;99186.53;;;5.92;70.26
66880;BME280;53789;51.392;10.234;2023-05-19T01:39:43;99174.75;;;5.91;69.89
66880;BME280;53789;51.392;10.234;2023-05-19T01:40:06;99172.03;;;5.91;70.33
66880;BME280;53789;51.392;10.234;2023-05-19T01:40:29;99184.84;;;5.91;69.67
66880;BME280;53789;51.392;10.234;2023-05-19T01:40:51;99177.50;;;5.91;69.95
66880;BME280;53789;51.392;10.234;2023-05-19T01:41:13;99177.50;;;5.91;70.09
66880;BME280;53789;51.392;10.234;2023-05-19T01:41:37;99184.03;;;5.90;69.75
66880;BME280;53789;51.392;10.234;2023-05-19T01:42:00;99178.59;;;5.90;70.16
66880;BME280;53789;51.392;10.234;2023-05-19T01:42:22;99172.28;;;5.90;70.06
66880;BME280;53789;51.392;10.234;2023-05-19T01:42:42;99174.75;;;5.91;70.40
66880;BME280;53789;51.392;10.234;2023-05-19T01:43:05;99171.22;;;5.91;70.43
66880;BME280;53789;51.392;10.234;2023-05-19T01:43:27;99179.41;;;5.91;70.35
66880;BME280;53789;51.392;10.234;2023-05-19T01:43:49;99172.28;;;5.90;70.01
66880;BME280;53789;51.392;10.234;2023-05-19T01:44:10;99177.75;;;5.90;70.52
66880;BME280;53789;51.392;10.234;2023-05-19T01:44:32;99175.00;;;5.90;70.29
66880;BME280;53789;51.392;10.234;2023-05-19T01:44:54;99175.00;;;5.90;70.29
66880;BME280;53789;51.392;10.234;2023-05-19T01:45:17;99184.84;;;5.91;70.43
66880;BME280;53789;51.392;10.234;2023-05-19T01:45:39;99173.94;;;5.91;70.15
66880;BME280;53789;51.392;10.234;2023-05-19T01:46:01;99170.13;;;5.92;70.42
66880;BME280;53789;51.392;10.234;2023-05-19T01:46:22;99170.13;;;5.92;70.30
66880;BME280;53789;51.392;10.234;2023-05-19T01:46:43;99174.50;;;5.93;70.67
66880;BME280;53789;51.392;10.234;2023-05-19T01:47:04;99176.97;;;5.94;70.68
66880;BME280;53789;51.392;10.234;2023-05-19T01:47:25;99180.81;;;5.93;70.67
66880;BME280;53789;51.392;10.234;2023-05-19T01:47:50;99177.22;;;5.93;70.48
66880;BME280;53789;51.392;10.234;2023-05-19T01:48:12;99177.22;;;5.93;70.53
66880;BME280;53789;51.392;10.234;2023-05-19T01:48:33;99172.03;;;5.91;70.78
66880;BME280;53789;51.392;10.234;2023-05-19T01:48:53;99175.59;;;5.92;70.19
66880;BME280;53789;51.392;10.234;2023-05-19T01:49:14;99179.16;;;5.92;70.56
66880;BME280;53789;51.392;10.234;2023-05-19T01:49:35;99178.06;;;5.93;71.05
66880;BME280;53789;51.392;10.234;2023-05-19T01:49:55;99184.59;;;5.92;70.85
66880;BME280;53789;51.392;10.234;2023-05-19T01:50:16;99174.50;;;5.93;70.28
66880;BME280;53789;51.392;10.234;2023-05-19T01:50:36;99173.69;;;5.92;70.21
66880;BME280;53789;51.392;10.234;2023-05-19T01:50:57;99174.75;;;5.91;70.54
66880;BME280;53789;51.392;10.234;2023-05-19T01:51:18;99170.13;;;5.92;70.39
66880;BME280;53789;51.392;10.234;2023-05-19T01:51:39;99178.59;;;5.90;70.21
66880;BME280;53789;51.392;10.234;2023-05-19T01:52:00;99174.75;;;5.91;70.58
66880;BME280;53789;51.392;10.234;2023-05-19T01:52:20;99180.22;;;5.91;70.78
66880;BME280;53789;51.392;10.234;2023-05-19T01:52:40;99179.41;;;5.91;70.47
66880;BME280;53789;51.392;10.234;2023-05-19T01:53:01;99178.34;;;5.92;70.82
66880;BME280;53789;51.392;10.234;2023-05-19T01:53:22;99177.50;;;5.91;70.61
66880;BME280;53789;51.392;10.234;2023-05-19T01:53:43;99181.06;;;5.92;70.57
66880;BME280;53789;51.392;10.234;2023-05-19T01:54:03;99172.03;;;5.91;70.17
66880;BME280;53789;51.392;10.234;2023-05-19T01:54:23;99178.59;;;5.90;70.77
66880;BME280;53789;51.392;10.234;2023-05-19T01:54:44;99176.66;;;5.91;70.37
66880;BME280;53789;51.392;10.234;2023-05-19T01:55:05;99175.00;;;5.90;70.58
66880;BME280;53789;51.392;10.234;2023-05-19T01:55:25;99174.19;;;5.89;70.70
66880;BME280;53789;51.392;10.234;2023-05-19T01:55:51;99175.25;;;5.88;70.58
66880;BME280;53789;51.392;10.234;2023-05-19T01:56:19;99174.44;;;5.88;70.50
66880;BME280;53789;51.392;10.234;2023-05-19T01:57:15;99177.44;;;5.86;70.80
66880;BME280;53789;51.392;10.234;2023-05-19T01:58:08;99174.69;;;5.86;70.50
66880;BME280;53789;51.392;10.234;2023-05-19T01:58:45;99182.91;;;5.86;70.83
66880;BME280;53789;51.392;10.234;2023-05-19T01:59:20;99182.91;;;5.86;70.87
66880;BME280;53789;51.392;10.234;2023-05-19T02:01:30;99170.66;;;5.89;71.24
66880;BME280;53789;51.392;10.234;2023-05-19T02:01:56;99178.00;;;5.88;70.96
66880;BME280;53789;51.392;10.234;2023-05-19T02:02:35;99176.09;;;5.89;71.16
66880;BME280;53789;51.392;10.234;2023-05-19T02:04:43;99176.94;;;5.89;70.67
66880;BME280;53789;51.392;10.234;2023-05-19T02:05:22;99175.25;;;5.88;70.94
66880;BME280;53789;51.392;10.234;2023-05-19T02:06:54;99177.19;;;5.88;70.85
66880;BME280;53789;51.392;10.234;2023-05-19T02:08:06;99179.66;;;5.89;71.34
66880;BME280;53789;51.392;10.234;2023-05-19T02:08:53;99174.44;;;5.88;71.73
66880;BME280;53789;51.392;10.234;2023-05-19T02:10:05;99176.94;;;5.89;70.99
66880;BME280;53789;51.392;10.234;2023-05-19T02:10:34;99180.47;;;5.90;71.34
66880;BME280;53789;51.392;10.234;2023-05-19T02:11:15;99180.47;;;5.90;71.83
66880;BME280;53789;51.392;10.234;2023-05-19T02:11:59;99178.59;;;5.90;71.39
66880;BME280;53789;51.392;10.234;2023-05-19T02:12:39;99178.34;;;5.92;70.50
66880;BME280;53789;51.392;10.234;2023-05-19T02:13:03;99181.63;;;5.94;71.09
66880;BME280;53789;51.392;10.234;2023-05-19T02:13:30;99185.16;;;5.94;71.70
66880;BME280;53789;51.392;10.234;2023-05-19T02:13:55;99183.03;;;5.96;71.07
66880;BME280;53789;51.392;10.234;2023-05-19T02:14:27;99180.31;;;5.96;71.31
66880;BME280;53789;51.392;10.234;2023-05-19T02:15:03;99175.66;;;5.97;71.42
66880;BME280;53789;51.392;10.234;2023-05-19T02:15:29;99174.59;;;5.98;71.37
66880;BME280;53789;51.392;10.234;2023-05-19T02:15:51;99174.59;;;5.98;71.19